This is the latest recevied weather packets stored in our database for station/object SP3WRO-13. If no packets are shown the sender has not sent any weather packets the latest 10 day(s).
| Time | Temp. | Humidity | Pressure | Rain* | Wind** | Luminosity | Snow |
|---|---|---|---|---|---|---|---|
| 1777499942 | -0.56° C | 80% | 1027.8 hPa | - | - | - | - |
| 1777499042 | -0.56° C | 79% | 1027.8 hPa | - | - | - | - |
| 1777498141 | 0° C | 76% | 1027.7 hPa | - | - | - | - |
| 1777497241 | 0.56° C | 76% | 1027.7 hPa | - | - | - | - |
| 1777496341 | 0.56° C | 74% | 1027.7 hPa | - | - | - | - |
| 1777493641 | 2.22° C | 71% | 1027.3 hPa | - | - | - | - |
| 1777490941 | 3.33° C | 66% | 1026.7 hPa | - | - | - | - |
| 1777490041 | 3.89° C | 64% | 1026.6 hPa | - | - | - | - |
| 1777489141 | 4.44° C | 62% | 1026.5 hPa | - | - | - | - |
| 1777488241 | 5.56° C | 59% | 1026.3 hPa | - | - | - | - |
| 1777487341 | 6.11° C | 58% | 1026.1 hPa | - | - | 1 W/m² | - |
| 1777486441 | 7.22° C | 53% | 1026 hPa | - | - | 4 W/m² | - |
| 1777485541 | 8.33° C | 50% | 1025.9 hPa | - | - | 11 W/m² | - |
| 1777484641 | 10° C | 40% | 1025.7 hPa | - | - | 20 W/m² | - |
| 1777483741 | 11.11° C | 36% | 1025.8 hPa | - | - | 27 W/m² | - |
| 1777482841 | 11.11° C | 35% | 1025.9 hPa | - | - | 35 W/m² | - |
| 1777480140 | 12.22° C | 30% | 1025.6 hPa | - | - | 60 W/m² | - |
| 1777479240 | 12.22° C | 31% | 1025.5 hPa | - | - | 79 W/m² | - |
| 1777478340 | 12.22° C | 32% | 1025.5 hPa | - | - | 112 W/m² | - |
| 1777476540 | 12.22° C | 31% | 1025.7 hPa | - | - | 140 W/m² | - |
| 1777474740 | 11.67° C | 31% | 1025.7 hPa | - | - | 339 W/m² | - |
| 1777472940 | 12.78° C | 29% | 1025.8 hPa | - | - | 481 W/m² | - |
| 1777472040 | 12.22° C | 28% | 1025.8 hPa | - | - | 500 W/m² | - |
| 1777471140 | 11.11° C | 30% | 1025.9 hPa | - | - | 462 W/m² | - |
| 1777469340 | 12.78° C | 28% | 1025.9 hPa | - | - | 658 W/m² | - |
* Rain since midnight (hover to see other rain measurements)
** Current wind speed in m/s (hover to see current wind gust speed)